This is the latest recevied weather packets stored in our database for station/object E22ZMG-3. If no packets are shown the sender has not sent any weather packets the latest 1 day(s).
| Time | Temp. | Humidity | Pressure | Rain* | Wind** | Luminosity | Snow |
|---|---|---|---|---|---|---|---|
| 1778016388 | 31.67° C | 58% | 975 hPa | - | 0 m/s | 0 W/m² | - |
| 1778015764 | 31.11° C | 59% | 975 hPa | - | 0 m/s | 0 W/m² | - |
| 1778015139 | 31.67° C | 56% | 975 hPa | - | 0 m/s | 0 W/m² | - |
| 1778014514 | 31.67° C | 57% | 975 hPa | - | 0 m/s | 0 W/m² | - |
| 1778013889 | 30.56° C | 60% | 975 hPa | - | 0 m/s | 0 W/m² | - |
| 1778013265 | 31.67° C | 56% | 975 hPa | - | 0 m/s | 0 W/m² | - |
| 1778012640 | 32.22° C | 55% | 975 hPa | - | 0 m/s | 0 W/m² | - |
| 1778012016 | 32.22° C | 55% | 975 hPa | - | 0 m/s | 0 W/m² | - |
| 1778011392 | - | - | - | - | 0 m/s | - | - |
| 1778011390 | 32.22° C | 55% | 975 hPa | - | 0 m/s | 0 W/m² | - |
| 1778010765 | 32.22° C | 55% | 975 hPa | - | 0 m/s | 0 W/m² | - |
| 1778010141 | 31.67° C | 56% | 975 hPa | - | 0 m/s | 0 W/m² | - |
| 1778009516 | 32.22° C | 55% | 975 hPa | - | 0 m/s | 0 W/m² | - |
| 1778008891 | 32.78° C | 53% | 975 hPa | - | 0 m/s | 0 W/m² | - |
| 1778008267 | 31.67° C | 55% | 975 hPa | - | 0 m/s | 0 W/m² | - |
| 1778007642 | 32.22° C | 54% | 975 hPa | - | 0 m/s | 0 W/m² | - |
| 1778007018 | 32.78° C | 53% | 975 hPa | - | 0 m/s | 0 W/m² | - |
| 1778006394 | 32.78° C | 53% | 975 hPa | - | 0 m/s | 0 W/m² | - |
| 1778005770 | 31.67° C | 54% | 976 hPa | - | 0 m/s | 0 W/m² | - |
| 1778005145 | 33.33° C | 51% | 976 hPa | - | 0 m/s | 0 W/m² | - |
| 1778004521 | 32.78° C | 52% | 976 hPa | - | 0 m/s | 0 W/m² | - |
| 1778003896 | 32.22° C | 53% | 976 hPa | - | 0 m/s | 0 W/m² | - |
| 1778003271 | 32.78° C | 52% | 976 hPa | - | 0 m/s | 0 W/m² | - |
| 1778002647 | 31.67° C | 54% | 976 hPa | - | 0 m/s | 0 W/m² | - |
| 1778002031 | 32.78° C | 52% | 976 hPa | - | 0 m/s | 0 W/m² | - |
* Rain since midnight (hover to see other rain measurements)
** Current wind speed in m/s (hover to see current wind gust speed)